sensor_id;sensor_type;location;lat;lon;timestamp;pressure;altitude;pressure_sealevel;temperature;humidity
69955;BME280;57279;55.912;37.490;2023-04-29T00:01:24;99110.81;;;3.75;88.12
69955;BME280;57279;55.912;37.490;2023-04-29T00:03:51;99096.94;;;3.84;88.42
69955;BME280;57279;55.912;37.490;2023-04-29T00:06:16;99103.56;;;3.82;88.38
69955;BME280;57279;55.912;37.490;2023-04-29T00:08:42;99103.03;;;3.73;87.82
69955;BME280;57279;55.912;37.490;2023-04-29T00:11:08;99101.84;;;3.69;87.85
69955;BME280;57279;55.912;37.490;2023-04-29T00:13:35;99106.75;;;3.72;88.85
69955;BME280;57279;55.912;37.490;2023-04-29T00:16:00;99121.19;;;3.64;88.83
69955;BME280;57279;55.912;37.490;2023-04-29T00:18:26;99106.94;;;3.52;88.75
69955;BME280;57279;55.912;37.490;2023-04-29T00:20:52;99108.78;;;3.51;88.91
69955;BME280;57279;55.912;37.490;2023-04-29T00:23:17;99107.38;;;3.49;88.83
69955;BME280;57279;55.912;37.490;2023-04-29T00:25:43;99108.56;;;3.53;89.29
69955;BME280;57279;55.912;37.490;2023-04-29T00:28:09;99101.16;;;3.55;88.81
69955;BME280;57279;55.912;37.490;2023-04-29T00:30:34;99107.91;;;3.58;89.17
69955;BME280;57279;55.912;37.490;2023-04-29T00:33:00;99106.56;;;3.67;89.14
69955;BME280;57279;55.912;37.490;2023-04-29T00:35:26;99109.03;;;3.68;89.07
69955;BME280;57279;55.912;37.490;2023-04-29T00:37:52;99108.28;;;3.61;88.60
69955;BME280;57279;55.912;37.490;2023-04-29T00:40:17;99100.88;;;3.63;87.84
69955;BME280;57279;55.912;37.490;2023-04-29T00:42:43;99085.69;;;3.64;87.80
69955;BME280;57279;55.912;37.490;2023-04-29T00:45:09;99091.88;;;3.58;87.07
69955;BME280;57279;55.912;37.490;2023-04-29T00:47:38;99098.91;;;3.52;86.84
69955;BME280;57279;55.912;37.490;2023-04-29T00:50:05;99090.31;;;3.50;86.95
69955;BME280;57279;55.912;37.490;2023-04-29T00:52:33;99090.00;;;3.40;86.91
69955;BME280;57279;55.912;37.490;2023-04-29T00:54:59;99076.00;;;3.44;86.99
69955;BME280;57279;55.912;37.490;2023-04-29T00:57:25;99079.63;;;3.50;86.78
69955;BME280;57279;55.912;37.490;2023-04-29T00:59:55;99071.88;;;3.48;86.92
69955;BME280;57279;55.912;37.490;2023-04-29T01:02:22;99078.63;;;3.51;87.13
69955;BME280;57279;55.912;37.490;2023-04-29T01:04:47;99081.88;;;3.53;87.19
69955;BME280;57279;55.912;37.490;2023-04-29T01:07:15;99079.06;;;3.66;87.77
69955;BME280;57279;55.912;37.490;2023-04-29T01:15:11;99081.59;;;3.80;87.25
69955;BME280;57279;55.912;37.490;2023-04-29T01:17:55;99081.59;;;3.80;86.90
69955;BME280;57279;55.912;37.490;2023-04-29T01:20:25;99078.03;;;3.86;86.64
69955;BME280;57279;55.912;37.490;2023-04-29T01:22:51;99080.91;;;3.84;86.47
69955;BME280;57279;55.912;37.490;2023-04-29T01:25:17;99082.63;;;3.79;86.10
69955;BME280;57279;55.912;37.490;2023-04-29T01:36:52;99078.50;;;3.83;85.77
69955;BME280;57279;55.912;37.490;2023-04-29T01:39:36;99073.75;;;3.85;86.00
69955;BME280;57279;55.912;37.490;2023-04-29T01:42:19;99088.19;;;3.96;86.35
69955;BME280;57279;55.912;37.490;2023-04-29T01:44:50;99070.25;;;4.03;86.28
69955;BME280;57279;55.912;37.490;2023-04-29T01:47:20;99071.72;;;3.99;85.31
69955;BME280;57279;55.912;37.490;2023-04-29T01:49:49;99071.28;;;4.02;85.77
69955;BME280;57279;55.912;37.490;2023-04-29T01:52:15;99068.63;;;4.02;85.33
69955;BME280;57279;55.912;37.490;2023-04-29T01:54:49;99076.25;;;3.98;85.38
69955;BME280;57279;55.912;37.490;2023-04-29T01:57:15;99076.47;;;3.97;85.20
69955;BME280;57279;55.912;37.490;2023-04-29T02:00:04;99070.19;;;3.91;84.92
69955;BME280;57279;55.912;37.490;2023-04-29T02:02:41;99070.03;;;3.86;84.60
69955;BME280;57279;55.912;37.490;2023-04-29T02:05:17;99066.97;;;3.82;84.70
69955;BME280;57279;55.912;37.490;2023-04-29T02:07:51;99067.44;;;3.79;84.24
69955;BME280;57279;55.912;37.490;2023-04-29T02:10:17;99075.72;;;3.71;84.34
69955;BME280;57279;55.912;37.490;2023-04-29T02:12:45;99076.31;;;3.73;84.23
69955;BME280;57279;55.912;37.490;2023-04-29T02:15:31;99076.78;;;3.70;83.85
69955;BME280;57279;55.912;37.490;2023-04-29T02:17:57;99084.63;;;3.65;83.81
69955;BME280;57279;55.912;37.490;2023-04-29T02:20:23;99082.56;;;3.48;83.50
69955;BME280;57279;55.912;37.490;2023-04-29T02:22:48;99086.53;;;3.39;83.54
69955;BME280;57279;55.912;37.490;2023-04-29T02:25:14;99083.31;;;3.30;83.90
69955;BME280;57279;55.912;37.490;2023-04-29T02:27:39;99085.94;;;3.37;84.62
69955;BME280;57279;55.912;37.490;2023-04-29T02:30:05;99093.09;;;3.37;84.30
69955;BME280;57279;55.912;37.490;2023-04-29T02:32:31;99094.97;;;3.36;84.28
69955;BME280;57279;55.912;37.490;2023-04-29T02:34:57;99093.28;;;3.42;84.25
69955;BME280;57279;55.912;37.490;2023-04-29T02:37:23;99094.47;;;3.46;84.20
69955;BME280;57279;55.912;37.490;2023-04-29T02:39:48;99099.22;;;3.44;84.00
69955;BME280;57279;55.912;37.490;2023-04-29T02:42:14;99099.88;;;3.39;84.24
69955;BME280;57279;55.912;37.490;2023-04-29T02:44:39;99099.31;;;3.30;83.77
69955;BME280;57279;55.912;37.490;2023-04-29T02:47:07;99099.13;;;3.32;83.78
69955;BME280;57279;55.912;37.490;2023-04-29T02:49:33;99098.78;;;3.47;84.40
69955;BME280;57279;55.912;37.490;2023-04-29T02:51:59;99101.44;;;3.47;84.29
69955;BME280;57279;55.912;37.490;2023-04-29T02:54:24;99101.59;;;3.52;84.28
69955;BME280;57279;55.912;37.490;2023-04-29T02:56:50;99112.66;;;3.56;84.31
69955;BME280;57279;55.912;37.490;2023-04-29T02:59:16;99117.19;;;3.55;83.70
69955;BME280;57279;55.912;37.490;2023-04-29T03:01:41;99126.72;;;3.44;83.70
69955;BME280;57279;55.912;37.490;2023-04-29T03:04:07;99130.22;;;3.45;83.84
69955;BME280;57279;55.912;37.490;2023-04-29T03:06:33;99137.84;;;3.41;83.38
69955;BME280;57279;55.912;37.490;2023-04-29T03:08:59;99147.34;;;3.30;83.37
69955;BME280;57279;55.912;37.490;2023-04-29T03:11:24;99152.28;;;3.33;83.97
69955;BME280;57279;55.912;37.490;2023-04-29T03:13:50;99144.59;;;3.44;84.96
69955;BME280;57279;55.912;37.490;2023-04-29T03:16:16;99155.69;;;3.41;84.17
69955;BME280;57279;55.912;37.490;2023-04-29T03:18:42;99158.34;;;3.41;83.88
69955;BME280;57279;55.912;37.490;2023-04-29T03:21:08;99161.78;;;3.48;84.66
69955;BME280;57279;55.912;37.490;2023-04-29T03:23:34;99163.88;;;3.46;84.37
69955;BME280;57279;55.912;37.490;2023-04-29T03:26:02;99181.13;;;3.43;83.96
69955;BME280;57279;55.912;37.490;2023-04-29T03:28:28;99191.63;;;3.38;83.68
69955;BME280;57279;55.912;37.490;2023-04-29T03:30:53;99188.84;;;3.26;83.45
69955;BME280;57279;55.912;37.490;2023-04-29T03:33:21;99195.22;;;3.25;83.29
69955;BME280;57279;55.912;37.490;2023-04-29T03:35:47;99199.13;;;3.23;83.45
69955;BME280;57279;55.912;37.490;2023-04-29T03:38:34;99201.81;;;3.23;83.77
69955;BME280;57279;55.912;37.490;2023-04-29T03:41:01;99205.56;;;3.15;83.14
69955;BME280;57279;55.912;37.490;2023-04-29T03:43:27;99209.59;;;3.24;83.29
69955;BME280;57279;55.912;37.490;2023-04-29T03:45:52;99210.03;;;3.21;83.29
69955;BME280;57279;55.912;37.490;2023-04-29T03:48:21;99213.69;;;3.27;83.43
69955;BME280;57279;55.912;37.490;2023-04-29T03:50:46;99204.38;;;3.36;83.08
69955;BME280;57279;55.912;37.490;2023-04-29T03:53:13;99200.63;;;3.44;83.23
69955;BME280;57279;55.912;37.490;2023-04-29T03:55:39;99198.88;;;3.31;82.36
69955;BME280;57279;55.912;37.490;2023-04-29T03:58:05;99205.38;;;3.42;82.53
69955;BME280;57279;55.912;37.490;2023-04-29T04:00:31;99200.22;;;3.47;82.20
69955;BME280;57279;55.912;37.490;2023-04-29T04:02:58;99207.16;;;3.48;82.10
69955;BME280;57279;55.912;37.490;2023-04-29T04:05:25;99215.13;;;3.55;82.71
69955;BME280;57279;55.912;37.490;2023-04-29T04:07:58;99218.78;;;3.60;82.49
69955;BME280;57279;55.912;37.490;2023-04-29T04:10:37;99218.59;;;3.62;81.79
69955;BME280;57279;55.912;37.490;2023-04-29T04:13:11;99218.50;;;3.68;81.80
69955;BME280;57279;55.912;37.490;2023-04-29T04:15:37;99220.00;;;3.64;81.58
69955;BME280;57279;55.912;37.490;2023-04-29T04:18:02;99233.34;;;3.64;82.33
69955;BME280;57279;55.912;37.490;2023-04-29T04:20:28;99233.44;;;3.51;81.72
69955;BME280;57279;55.912;37.490;2023-04-29T04:22:54;99219.88;;;3.52;81.89
69955;BME280;57279;55.912;37.490;2023-04-29T04:25:26;99218.19;;;3.58;81.95
69955;BME280;57279;55.912;37.490;2023-04-29T04:27:57;99223.97;;;3.55;82.05
69955;BME280;57279;55.912;37.490;2023-04-29T04:30:48;99222.47;;;3.59;82.06
69955;BME280;57279;55.912;37.490;2023-04-29T04:33:14;99214.66;;;3.64;82.21
69955;BME280;57279;55.912;37.490;2023-04-29T04:35:42;99219.59;;;3.61;82.65
69955;BME280;57279;55.912;37.490;2023-04-29T04:38:07;99223.09;;;3.61;82.46
69955;BME280;57279;55.912;37.490;2023-04-29T04:40:36;99228.38;;;3.68;82.57
69955;BME280;57279;55.912;37.490;2023-04-29T04:43:17;99227.53;;;3.67;83.01
69955;BME280;57279;55.912;37.490;2023-04-29T04:45:43;99222.66;;;3.64;82.19
69955;BME280;57279;55.912;37.490;2023-04-29T04:48:09;99220.75;;;3.71;82.45
69955;BME280;57279;55.912;37.490;2023-04-29T04:50:37;99227.50;;;3.74;82.58
69955;BME280;57279;55.912;37.490;2023-04-29T04:53:03;99223.16;;;3.80;82.59
69955;BME280;57279;55.912;37.490;2023-04-29T04:55:43;99221.28;;;3.80;82.16
69955;BME280;57279;55.912;37.490;2023-04-29T04:58:08;99222.94;;;3.81;82.17
69955;BME280;57279;55.912;37.490;2023-04-29T05:00:35;99226.25;;;3.77;82.19
69955;BME280;57279;55.912;37.490;2023-04-29T05:03:01;99228.66;;;3.85;81.81
69955;BME280;57279;55.912;37.490;2023-04-29T05:05:26;99218.56;;;3.87;81.86
69955;BME280;57279;55.912;37.490;2023-04-29T05:07:52;99219.38;;;3.87;81.55
69955;BME280;57279;55.912;37.490;2023-04-29T05:10:24;99236.31;;;4.00;81.75
69955;BME280;57279;55.912;37.490;2023-04-29T05:12:53;99225.19;;;4.03;81.05
69955;BME280;57279;55.912;37.490;2023-04-29T05:15:19;99227.06;;;4.02;80.86
69955;BME280;57279;55.912;37.490;2023-04-29T05:17:47;99234.25;;;4.02;80.28
69955;BME280;57279;55.912;37.490;2023-04-29T05:20:13;99229.88;;;4.07;80.85
69955;BME280;57279;55.912;37.490;2023-04-29T05:22:39;99231.06;;;4.11;80.55
69955;BME280;57279;55.912;37.490;2023-04-29T05:25:06;99225.72;;;4.11;80.39
69955;BME280;57279;55.912;37.490;2023-04-29T05:27:34;99223.50;;;4.08;80.14
69955;BME280;57279;55.912;37.490;2023-04-29T05:30:01;99223.31;;;4.03;79.83
69955;BME280;57279;55.912;37.490;2023-04-29T05:32:29;99222.91;;;4.06;79.67
69955;BME280;57279;55.912;37.490;2023-04-29T05:34:54;99236.69;;;4.03;79.60
69955;BME280;57279;55.912;37.490;2023-04-29T05:37:21;99257.25;;;4.03;79.40
69955;BME280;57279;55.912;37.490;2023-04-29T05:40:03;99240.50;;;4.14;79.54
69955;BME280;57279;55.912;37.490;2023-04-29T05:42:29;99241.25;;;4.21;79.35
69955;BME280;57279;55.912;37.490;2023-04-29T05:44:57;99236.41;;;4.30;79.73
69955;BME280;57279;55.912;37.490;2023-04-29T05:47:23;99244.00;;;4.33;79.25
69955;BME280;57279;55.912;37.490;2023-04-29T05:49:48;99245.41;;;4.36;79.61
69955;BME280;57279;55.912;37.490;2023-04-29T05:52:14;99248.91;;;4.36;79.49
69955;BME280;57279;55.912;37.490;2023-04-29T05:54:44;99244.59;;;4.35;79.11
69955;BME280;57279;55.912;37.490;2023-04-29T05:57:11;99254.72;;;4.52;79.63
69955;BME280;57279;55.912;37.490;2023-04-29T05:59:38;99260.72;;;4.65;79.31
69955;BME280;57279;55.912;37.490;2023-04-29T06:02:04;99265.25;;;4.65;79.05
69955;BME280;57279;55.912;37.490;2023-04-29T06:04:32;99263.78;;;4.69;79.11
69955;BME280;57279;55.912;37.490;2023-04-29T06:07:13;99271.28;;;4.79;78.75
69955;BME280;57279;55.912;37.490;2023-04-29T06:09:49;99274.09;;;4.84;78.88
69955;BME280;57279;55.912;37.490;2023-04-29T06:12:15;99276.81;;;4.96;78.22
69955;BME280;57279;55.912;37.490;2023-04-29T06:14:42;99272.28;;;4.96;78.47
69955;BME280;57279;55.912;37.490;2023-04-29T06:17:08;99270.19;;;4.98;77.65
69955;BME280;57279;55.912;37.490;2023-04-29T06:19:34;99284.84;;;5.14;77.87
69955;BME280;57279;55.912;37.490;2023-04-29T06:21:59;99288.50;;;5.32;78.59
69955;BME280;57279;55.912;37.490;2023-04-29T06:24:25;99285.00;;;5.31;77.35
69955;BME280;57279;55.912;37.490;2023-04-29T06:26:51;99292.44;;;5.29;76.91
69955;BME280;57279;55.912;37.490;2023-04-29T06:29:16;99292.59;;;5.34;77.11
69955;BME280;57279;55.912;37.490;2023-04-29T06:31:42;99288.31;;;5.45;77.54
69955;BME280;57279;55.912;37.490;2023-04-29T06:34:08;99287.06;;;5.59;77.23
69955;BME280;57279;55.912;37.490;2023-04-29T06:36:42;99299.78;;;5.64;76.20
69955;BME280;57279;55.912;37.490;2023-04-29T06:39:34;99300.94;;;5.56;75.78
69955;BME280;57279;55.912;37.490;2023-04-29T06:42:22;99298.66;;;5.72;76.17
69955;BME280;57279;55.912;37.490;2023-04-29T06:45:20;99293.31;;;5.83;75.48
69955;BME280;57279;55.912;37.490;2023-04-29T06:48:18;99299.56;;;6.07;75.11
69955;BME280;57279;55.912;37.490;2023-04-29T06:50:50;99299.22;;;6.16;74.45
69955;BME280;57279;55.912;37.490;2023-04-29T06:53:17;99299.69;;;6.24;74.02
69955;BME280;57279;55.912;37.490;2023-04-29T06:55:42;99307.59;;;6.31;73.76
69955;BME280;57279;55.912;37.490;2023-04-29T06:58:09;99309.84;;;6.34;73.39
69955;BME280;57279;55.912;37.490;2023-04-29T07:00:35;99303.97;;;6.37;73.11
69955;BME280;57279;55.912;37.490;2023-04-29T07:03:01;99320.31;;;6.48;72.76
69955;BME280;57279;55.912;37.490;2023-04-29T07:05:27;99318.44;;;6.60;72.42
69955;BME280;57279;55.912;37.490;2023-04-29T07:07:53;99319.38;;;6.65;72.67
69955;BME280;57279;55.912;37.490;2023-04-29T07:10:19;99317.50;;;6.66;72.85
69955;BME280;57279;55.912;37.490;2023-04-29T07:12:45;99317.88;;;6.34;72.04
69955;BME280;57279;55.912;37.490;2023-04-29T07:15:11;99330.91;;;6.54;72.81
69955;BME280;57279;55.912;37.490;2023-04-29T07:17:37;99332.34;;;6.57;72.04
69955;BME280;57279;55.912;37.490;2023-04-29T07:20:03;99336.28;;;6.66;72.30
69955;BME280;57279;55.912;37.490;2023-04-29T07:22:29;99331.16;;;6.53;71.91
69955;BME280;57279;55.912;37.490;2023-04-29T07:24:55;99337.69;;;6.57;71.88
69955;BME280;57279;55.912;37.490;2023-04-29T07:27:22;99349.69;;;6.66;72.13
69955;BME280;57279;55.912;37.490;2023-04-29T07:29:48;99349.09;;;6.76;72.42
69955;BME280;57279;55.912;37.490;2023-04-29T07:32:15;99348.72;;;6.96;72.06
69955;BME280;57279;55.912;37.490;2023-04-29T07:34:41;99354.19;;;7.13;71.64
69955;BME280;57279;55.912;37.490;2023-04-29T07:37:08;99348.19;;;7.22;71.35
69955;BME280;57279;55.912;37.490;2023-04-29T07:39:34;99356.91;;;7.01;70.55
69955;BME280;57279;55.912;37.490;2023-04-29T07:42:01;99363.13;;;6.78;70.14
69955;BME280;57279;55.912;37.490;2023-04-29T07:44:30;99351.34;;;6.67;70.38
69955;BME280;57279;55.912;37.490;2023-04-29T07:46:55;99356.81;;;6.72;70.52
69955;BME280;57279;55.912;37.490;2023-04-29T07:49:21;99352.00;;;6.98;70.60
69955;BME280;57279;55.912;37.490;2023-04-29T07:51:48;99359.66;;;7.18;70.59
69955;BME280;57279;55.912;37.490;2023-04-29T07:54:14;99354.41;;;7.11;69.48
69955;BME280;57279;55.912;37.490;2023-04-29T07:56:41;99357.69;;;7.13;68.22
69955;BME280;57279;55.912;37.490;2023-04-29T07:59:07;99372.03;;;7.19;67.61
69955;BME280;57279;55.912;37.490;2023-04-29T08:01:33;99375.53;;;7.19;67.92
69955;BME280;57279;55.912;37.490;2023-04-29T08:03:59;99379.84;;;7.20;67.69
69955;BME280;57279;55.912;37.490;2023-04-29T08:06:25;99369.13;;;7.09;67.98
69955;BME280;57279;55.912;37.490;2023-04-29T08:08:51;99376.69;;;7.23;68.69
69955;BME280;57279;55.912;37.490;2023-04-29T08:11:18;99376.09;;;7.33;67.28
69955;BME280;57279;55.912;37.490;2023-04-29T08:13:45;99391.94;;;7.47;66.22
69955;BME280;57279;55.912;37.490;2023-04-29T08:16:11;99393.66;;;7.53;66.47
69955;BME280;57279;55.912;37.490;2023-04-29T08:18:38;99395.28;;;7.54;65.56
69955;BME280;57279;55.912;37.490;2023-04-29T08:21:04;99394.13;;;7.78;64.76
69955;BME280;57279;55.912;37.490;2023-04-29T08:23:30;99385.03;;;7.79;64.82
69955;BME280;57279;55.912;37.490;2023-04-29T08:25:57;99389.38;;;7.69;64.27
69955;BME280;57279;55.912;37.490;2023-04-29T08:28:23;99393.19;;;7.56;64.72
69955;BME280;57279;55.912;37.490;2023-04-29T08:30:49;99387.38;;;7.76;65.58
69955;BME280;57279;55.912;37.490;2023-04-29T08:33:15;99383.00;;;7.87;65.37
69955;BME280;57279;55.912;37.490;2023-04-29T08:35:41;99387.91;;;8.07;65.34
69955;BME280;57279;55.912;37.490;2023-04-29T08:38:08;99395.84;;;8.13;63.75
69955;BME280;57279;55.912;37.490;2023-04-29T08:40:35;99394.84;;;8.02;62.04
69955;BME280;57279;55.912;37.490;2023-04-29T08:43:07;99399.75;;;8.06;63.11
69955;BME280;57279;55.912;37.490;2023-04-29T08:45:35;99393.22;;;8.35;63.19
69955;BME280;57279;55.912;37.490;2023-04-29T08:48:06;99400.94;;;8.60;63.57
69955;BME280;57279;55.912;37.490;2023-04-29T08:50:36;99386.59;;;8.55;60.81
69955;BME280;57279;55.912;37.490;2023-04-29T08:53:05;99398.13;;;8.38;59.79
69955;BME280;57279;55.912;37.490;2023-04-29T08:55:39;99405.31;;;8.33;60.27
69955;BME280;57279;55.912;37.490;2023-04-29T08:58:06;99401.25;;;8.47;60.31
69955;BME280;57279;55.912;37.490;2023-04-29T09:00:33;99404.03;;;8.52;60.57
69955;BME280;57279;55.912;37.490;2023-04-29T09:05:48;99414.25;;;8.21;58.31
69955;BME280;57279;55.912;37.490;2023-04-29T09:08:17;99425.84;;;8.22;58.69
69955;BME280;57279;55.912;37.490;2023-04-29T09:10:43;99418.91;;;8.26;58.32
69955;BME280;57279;55.912;37.490;2023-04-29T09:13:22;99419.31;;;8.35;58.25
69955;BME280;57279;55.912;37.490;2023-04-29T09:15:48;99414.22;;;8.50;57.81
69955;BME280;57279;55.912;37.490;2023-04-29T09:18:47;99406.38;;;8.66;57.59
69955;BME280;57279;55.912;37.490;2023-04-29T09:21:17;99410.97;;;8.65;55.96
69955;BME280;57279;55.912;37.490;2023-04-29T09:23:44;99412.44;;;8.56;53.48
69955;BME280;57279;55.912;37.490;2023-04-29T09:26:10;99411.22;;;8.64;54.32
69955;BME280;57279;55.912;37.490;2023-04-29T09:28:36;99413.09;;;8.63;53.56
69955;BME280;57279;55.912;37.490;2023-04-29T09:31:04;99410.53;;;8.73;53.24
69955;BME280;57279;55.912;37.490;2023-04-29T09:33:31;99411.84;;;8.88;54.15
69955;BME280;57279;55.912;37.490;2023-04-29T09:36:14;99414.41;;;9.16;53.33
69955;BME280;57279;55.912;37.490;2023-04-29T09:38:52;99417.44;;;9.25;53.34
69955;BME280;57279;55.912;37.490;2023-04-29T09:41:19;99419.59;;;9.23;52.77
69955;BME280;57279;55.912;37.490;2023-04-29T09:44:01;99421.41;;;9.17;51.10
69955;BME280;57279;55.912;37.490;2023-04-29T09:46:29;99423.84;;;9.19;51.55
69955;BME280;57279;55.912;37.490;2023-04-29T09:48:54;99426.38;;;9.26;50.62
69955;BME280;57279;55.912;37.490;2023-04-29T09:51:22;99433.13;;;9.28;50.98
69955;BME280;57279;55.912;37.490;2023-04-29T09:53:47;99434.56;;;9.36;51.12
69955;BME280;57279;55.912;37.490;2023-04-29T09:56:13;99434.44;;;9.48;51.00
69955;BME280;57279;55.912;37.490;2023-04-29T09:58:39;99427.09;;;9.65;50.86
69955;BME280;57279;55.912;37.490;2023-04-29T10:01:06;99434.69;;;9.90;51.61
69955;BME280;57279;55.912;37.490;2023-04-29T10:03:36;99450.50;;;9.82;50.77
69955;BME280;57279;55.912;37.490;2023-04-29T10:06:06;99449.25;;;9.67;51.20
69955;BME280;57279;55.912;37.490;2023-04-29T10:08:33;99457.28;;;9.62;51.25
69955;BME280;57279;55.912;37.490;2023-04-29T10:11:03;99454.84;;;9.61;50.80
69955;BME280;57279;55.912;37.490;2023-04-29T10:13:29;99456.16;;;9.58;51.57
69955;BME280;57279;55.912;37.490;2023-04-29T10:18:40;99444.88;;;10.10;50.83
69955;BME280;57279;55.912;37.490;2023-04-29T10:21:07;99450.56;;;10.41;49.99
69955;BME280;57279;55.912;37.490;2023-04-29T10:23:35;99455.28;;;10.51;47.04
69955;BME280;57279;55.912;37.490;2023-04-29T10:26:02;99456.84;;;10.47;47.11
69955;BME280;57279;55.912;37.490;2023-04-29T10:28:31;99465.88;;;10.30;47.74
69955;BME280;57279;55.912;37.490;2023-04-29T10:31:01;99466.03;;;10.46;47.56
69955;BME280;57279;55.912;37.490;2023-04-29T10:33:31;99465.72;;;10.74;47.04
69955;BME280;57279;55.912;37.490;2023-04-29T10:36:01;99463.28;;;11.10;46.36
69955;BME280;57279;55.912;37.490;2023-04-29T10:38:43;99461.75;;;11.30;45.26
69955;BME280;57279;55.912;37.490;2023-04-29T10:41:21;99470.22;;;11.01;43.01
69955;BME280;57279;55.912;37.490;2023-04-29T10:43:54;99476.19;;;11.03;43.62
69955;BME280;57279;55.912;37.490;2023-04-29T10:46:23;99481.34;;;11.05;45.07
69955;BME280;57279;55.912;37.490;2023-04-29T10:49:02;99485.44;;;11.12;45.55
69955;BME280;57279;55.912;37.490;2023-04-29T10:59:12;99477.59;;;11.64;44.24
69955;BME280;57279;55.912;37.490;2023-04-29T11:01:49;99486.97;;;11.41;41.38
69955;BME280;57279;55.912;37.490;2023-04-29T11:04:16;99488.19;;;11.23;41.82
69955;BME280;57279;55.912;37.490;2023-04-29T11:07:00;99489.03;;;11.23;42.22
69955;BME280;57279;55.912;37.490;2023-04-29T11:09:29;99481.63;;;11.08;40.68
69955;BME280;57279;55.912;37.490;2023-04-29T11:11:59;99487.84;;;11.09;41.90
69955;BME280;57279;55.912;37.490;2023-04-29T11:14:36;99487.34;;;11.12;40.97
69955;BME280;57279;55.912;37.490;2023-04-29T11:17:12;99493.97;;;11.42;41.48
69955;BME280;57279;55.912;37.490;2023-04-29T11:19:45;99484.81;;;11.43;38.64
69955;BME280;57279;55.912;37.490;2023-04-29T11:24:53;99499.78;;;12.44;39.51
69955;BME280;57279;55.912;37.490;2023-04-29T11:27:20;99491.44;;;12.82;38.57
69955;BME280;57279;55.912;37.490;2023-04-29T11:29:54;99493.59;;;12.59;36.77
69955;BME280;57279;55.912;37.490;2023-04-29T11:32:27;99501.16;;;12.57;36.37
69955;BME280;57279;55.912;37.490;2023-04-29T11:34:54;99512.78;;;12.42;37.14
69955;BME280;57279;55.912;37.490;2023-04-29T11:37:24;99512.69;;;12.06;35.51
69955;BME280;57279;55.912;37.490;2023-04-29T11:39:50;99494.66;;;12.48;36.05
69955;BME280;57279;55.912;37.490;2023-04-29T11:42:20;99500.66;;;12.76;36.71
69955;BME280;57279;55.912;37.490;2023-04-29T11:44:50;99503.88;;;12.98;38.39
69955;BME280;57279;55.912;37.490;2023-04-29T11:47:16;99500.34;;;13.23;37.54
69955;BME280;57279;55.912;37.490;2023-04-29T11:49:42;99490.28;;;13.29;39.12
69955;BME280;57279;55.912;37.490;2023-04-29T11:52:08;99503.31;;;13.27;39.88
69955;BME280;57279;55.912;37.490;2023-04-29T11:54:34;99506.03;;;13.22;39.64
69955;BME280;57279;55.912;37.490;2023-04-29T11:57:00;99512.81;;;13.14;40.09
69955;BME280;57279;55.912;37.490;2023-04-29T11:59:30;99511.47;;;13.06;39.36
69955;BME280;57279;55.912;37.490;2023-04-29T12:01:57;99512.28;;;12.86;38.19
69955;BME280;57279;55.912;37.490;2023-04-29T12:04:25;99509.84;;;12.85;38.19
69955;BME280;57279;55.912;37.490;2023-04-29T12:06:51;99501.72;;;12.90;38.03
69955;BME280;57279;55.912;37.490;2023-04-29T12:09:18;99495.47;;;13.05;37.42
69955;BME280;57279;55.912;37.490;2023-04-29T12:11:44;99488.66;;;13.28;37.43
69955;BME280;57279;55.912;37.490;2023-04-29T12:14:12;99489.22;;;13.30;38.21
69955;BME280;57279;55.912;37.490;2023-04-29T12:16:38;99495.44;;;13.20;37.44
69955;BME280;57279;55.912;37.490;2023-04-29T12:19:04;99493.03;;;13.03;36.08
69955;BME280;57279;55.912;37.490;2023-04-29T12:21:32;99499.25;;;13.09;37.37
69955;BME280;57279;55.912;37.490;2023-04-29T12:23:58;99502.22;;;13.23;36.59
69955;BME280;57279;55.912;37.490;2023-04-29T12:26:27;99498.44;;;13.44;35.75
69955;BME280;57279;55.912;37.490;2023-04-29T12:28:56;99502.22;;;13.43;36.30
69955;BME280;57279;55.912;37.490;2023-04-29T12:31:22;99492.13;;;13.59;36.59
69955;BME280;57279;55.912;37.490;2023-04-29T12:33:53;99496.38;;;13.86;35.19
69955;BME280;57279;55.912;37.490;2023-04-29T12:36:19;99490.81;;;14.12;34.56
69955;BME280;57279;55.912;37.490;2023-04-29T12:38:46;99492.56;;;13.92;33.58
69955;BME280;57279;55.912;37.490;2023-04-29T12:41:12;99493.97;;;13.79;33.92
69955;BME280;57279;55.912;37.490;2023-04-29T12:43:40;99498.34;;;13.65;34.57
69955;BME280;57279;55.912;37.490;2023-04-29T12:46:08;99488.31;;;13.60;35.11
69955;BME280;57279;55.912;37.490;2023-04-29T12:48:36;99493.25;;;13.48;34.53
69955;BME280;57279;55.912;37.490;2023-04-29T12:51:08;99487.56;;;13.44;34.73
69955;BME280;57279;55.912;37.490;2023-04-29T12:53:34;99499.25;;;13.09;33.26
69955;BME280;57279;55.912;37.490;2023-04-29T12:56:00;99493.84;;;13.04;33.98
69955;BME280;57279;55.912;37.490;2023-04-29T12:58:29;99486.78;;;12.93;33.65
69955;BME280;57279;55.912;37.490;2023-04-29T13:00:58;99480.84;;;12.65;34.24
69955;BME280;57279;55.912;37.490;2023-04-29T13:03:27;99487.06;;;12.81;35.33
69955;BME280;57279;55.912;37.490;2023-04-29T13:05:53;99498.47;;;12.93;35.66
69955;BME280;57279;55.912;37.490;2023-04-29T13:08:19;99489.75;;;13.11;36.76
69955;BME280;57279;55.912;37.490;2023-04-29T13:10:56;99488.16;;;13.10;35.12
69955;BME280;57279;55.912;37.490;2023-04-29T13:13:22;99490.59;;;12.91;34.08
69955;BME280;57279;55.912;37.490;2023-04-29T13:15:47;99484.09;;;12.51;33.09
69955;BME280;57279;55.912;37.490;2023-04-29T13:18:14;99488.16;;;12.49;33.95
69955;BME280;57279;55.912;37.490;2023-04-29T13:20:40;99487.84;;;12.35;34.28
69955;BME280;57279;55.912;37.490;2023-04-29T13:23:05;99489.19;;;12.17;34.87
69955;BME280;57279;55.912;37.490;2023-04-29T13:25:31;99492.97;;;12.21;35.73
69955;BME280;57279;55.912;37.490;2023-04-29T13:27:57;99490.00;;;12.23;34.64
69955;BME280;57279;55.912;37.490;2023-04-29T13:30:22;99495.66;;;12.06;34.28
69955;BME280;57279;55.912;37.490;2023-04-29T13:32:48;99492.84;;;11.85;34.18
69955;BME280;57279;55.912;37.490;2023-04-29T13:35:14;99486.06;;;11.83;35.77